createdAt,value
2022-12-08T00:02:17.336Z,3.04
2022-12-08T00:05:04.707Z,3.43
2022-12-08T00:07:51.775Z,3.71
2022-12-08T00:10:47.998Z,3.71
2022-12-08T00:13:08.568Z,3.97
2022-12-08T00:15:37.459Z,3.43
2022-12-08T00:18:06.633Z,3.67
2022-12-08T00:20:35.067Z,3.82
2022-12-08T00:23:04.663Z,3.81
2022-12-08T00:25:36.028Z,3.84
2022-12-08T00:28:04.533Z,3.84
2022-12-08T00:30:32.869Z,3.63
2022-12-08T00:33:01.228Z,3.81
2022-12-08T00:35:29.648Z,3.53
2022-12-08T00:38:01.035Z,3.71
2022-12-08T00:40:29.932Z,3.48
2022-12-08T00:42:58.724Z,3.67
2022-12-08T00:45:27.105Z,3.56
2022-12-08T00:47:55.462Z,3.72
2022-12-08T00:50:24.453Z,3.91
2022-12-08T00:52:52.864Z,4.16
2022-12-08T00:55:21.166Z,3.91
2022-12-08T00:57:49.570Z,3.98
2022-12-08T01:00:18.244Z,3.87
2022-12-08T01:02:47.270Z,4.08
2022-12-08T01:05:15.769Z,3.48
2022-12-08T01:07:44.125Z,3.36
2022-12-08T01:10:12.608Z,2.11
2022-12-08T01:12:40.975Z,1.44
2022-12-08T01:15:09.752Z,2.27
2022-12-08T01:17:38.372Z,3.37
2022-12-08T01:20:07.506Z,3.47
2022-12-08T01:22:36.448Z,3.78
2022-12-08T01:25:06.324Z,3.98
2022-12-08T01:27:35.315Z,4.21
2022-12-08T01:30:05.458Z,3.94
2022-12-08T01:32:33.997Z,4.04
2022-12-08T01:35:02.373Z,4.32
2022-12-08T01:37:30.753Z,4.41
2022-12-08T01:39:59.084Z,4.11
2022-12-08T01:42:27.471Z,4.17
2022-12-08T01:45:03.118Z,4.32
2022-12-08T01:47:42.871Z,4.38
2022-12-08T01:50:12.200Z,3.76
2022-12-08T01:52:47.160Z,3.72
2022-12-08T01:55:20.346Z,3.50
2022-12-08T01:57:54.500Z,3.89
2022-12-08T02:00:22.934Z,4.00
2022-12-08T02:02:59.321Z,3.41
2022-12-08T02:05:29.900Z,3.55
2022-12-08T02:07:58.812Z,3.82
2022-12-08T02:10:30.574Z,3.96
2022-12-08T02:12:58.960Z,3.95
2022-12-08T02:15:46.572Z,3.91
2022-12-08T02:18:35.316Z,4.03
2022-12-08T02:21:11.866Z,4.18
2022-12-08T02:23:46.939Z,4.57
2022-12-08T02:26:29.130Z,4.48
2022-12-08T02:29:06.392Z,4.58
2022-12-08T02:32:21.293Z,4.55
2022-12-08T02:35:05.121Z,3.96
2022-12-08T02:37:36.169Z,4.55
2022-12-08T02:40:08.892Z,3.26
2022-12-08T02:42:52.321Z,3.95
2022-12-08T02:45:30.924Z,3.51
2022-12-08T02:47:59.484Z,2.13
2022-12-08T02:50:28.566Z,2.41
2022-12-08T02:52:57.023Z,2.96
2022-12-08T02:55:51.892Z,3.67
2022-12-08T02:58:27.542Z,3.40
2022-12-08T03:01:33.661Z,2.88
2022-12-08T03:04:11.149Z,2.51
2022-12-08T03:06:55.312Z,2.80
2022-12-08T03:09:43.294Z,3.33
2022-12-08T03:12:19.632Z,3.53
2022-12-08T03:14:50.529Z,3.29
2022-12-08T03:17:19.685Z,3.62
2022-12-08T03:19:48.527Z,3.37
2022-12-08T03:22:18.943Z,3.67
2022-12-08T03:24:47.436Z,3.68
2022-12-08T03:27:26.858Z,3.57
2022-12-08T03:29:56.020Z,3.02
2022-12-08T03:32:27.394Z,3.68
2022-12-08T03:34:56.269Z,3.82
2022-12-08T03:37:24.777Z,3.84
2022-12-08T03:39:53.166Z,4.22
2022-12-08T03:42:22.159Z,4.08
2022-12-08T03:44:50.521Z,3.35
2022-12-08T03:47:18.786Z,3.04
2022-12-08T03:49:47.204Z,3.14
2022-12-08T03:52:16.220Z,3.53
2022-12-08T03:54:45.650Z,3.85
2022-12-08T03:57:14.052Z,3.91
2022-12-08T03:59:43.277Z,3.81
2022-12-08T04:02:11.710Z,4.02
2022-12-08T04:04:40.211Z,4.22
2022-12-08T04:07:09.012Z,4.02
2022-12-08T04:09:37.440Z,4.20
2022-12-08T04:12:05.981Z,4.12
2022-12-08T04:14:34.286Z,4.15
2022-12-08T04:17:02.636Z,4.34
2022-12-08T04:19:31.616Z,4.43
2022-12-08T04:22:00.084Z,4.13
2022-12-08T04:24:28.549Z,3.90
2022-12-08T04:26:57.406Z,2.94
2022-12-08T04:29:25.780Z,2.79
2022-12-08T04:31:54.219Z,2.95
2022-12-08T04:34:22.776Z,3.60
2022-12-08T04:36:51.148Z,3.28
2022-12-08T04:39:19.546Z,4.09
2022-12-08T04:41:47.886Z,4.14
2022-12-08T04:44:16.321Z,3.67
2022-12-08T04:46:44.716Z,3.97
2022-12-08T04:49:13.208Z,4.26
2022-12-08T04:51:42.017Z,4.10
2022-12-08T04:54:10.370Z,4.20
2022-12-08T04:56:38.745Z,3.99
2022-12-08T04:59:07.148Z,4.38
2022-12-08T05:01:36.287Z,4.36
2022-12-08T05:04:04.766Z,4.33
2022-12-08T05:06:33.134Z,3.88
2022-12-08T05:09:01.493Z,3.55
2022-12-08T05:11:29.911Z,3.61
2022-12-08T05:13:58.339Z,3.36
2022-12-08T05:16:26.828Z,3.02
2022-12-08T05:18:55.326Z,3.10
2022-12-08T05:21:24.594Z,2.99
2022-12-08T05:23:53.103Z,3.72
2022-12-08T05:26:22.010Z,3.29
2022-12-08T05:28:50.344Z,3.14
2022-12-08T05:31:18.968Z,3.65
2022-12-08T05:33:47.611Z,3.83
2022-12-08T05:36:16.141Z,3.98
2022-12-08T05:38:44.722Z,3.68
2022-12-08T05:41:22.186Z,4.21
2022-12-08T05:43:50.716Z,4.26
2022-12-08T05:46:19.448Z,3.72
2022-12-08T05:48:47.947Z,4.10
2022-12-08T05:51:20.913Z,4.26
2022-12-08T05:53:49.781Z,4.41
2022-12-08T05:56:18.270Z,4.61
2022-12-08T05:58:47.091Z,4.53
2022-12-08T06:01:33.637Z,4.26
2022-12-08T06:04:02.769Z,4.49
2022-12-08T06:06:31.443Z,4.44
2022-12-08T06:09:00.431Z,4.55
2022-12-08T06:11:29.948Z,4.49
2022-12-08T06:13:59.825Z,4.53
2022-12-08T06:16:28.752Z,4.52
2022-12-08T06:18:57.301Z,4.59
2022-12-08T06:21:26.034Z,4.22
2022-12-08T06:23:54.950Z,4.25
2022-12-08T06:26:23.578Z,4.27
2022-12-08T06:28:52.112Z,4.44
2022-12-08T06:31:24.978Z,4.46
2022-12-08T06:33:54.258Z,4.20
2022-12-08T06:36:26.035Z,4.34
2022-12-08T06:38:54.544Z,3.94
2022-12-08T06:41:23.016Z,4.20
2022-12-08T06:43:51.455Z,4.47
2022-12-08T06:46:20.495Z,4.20
2022-12-08T06:48:50.837Z,4.42
2022-12-08T06:51:20.569Z,4.43
2022-12-08T06:53:49.034Z,4.59
2022-12-08T06:56:20.345Z,4.65
2022-12-08T06:58:52.476Z,3.98
2022-12-08T07:01:21.553Z,4.14
2022-12-08T07:03:50.253Z,3.76
2022-12-08T07:06:24.038Z,3.91
2022-12-08T07:08:52.735Z,4.12
2022-12-08T07:11:22.222Z,4.21
2022-12-08T07:13:51.150Z,3.83
2022-12-08T07:16:19.711Z,3.83
2022-12-08T07:18:48.273Z,3.59
2022-12-08T07:21:16.891Z,3.45
2022-12-08T07:23:54.274Z,2.85
2022-12-08T07:26:25.758Z,3.56
2022-12-08T07:28:54.662Z,3.60
2022-12-08T07:31:24.950Z,3.43
2022-12-08T07:33:54.363Z,3.54
2022-12-08T07:36:22.939Z,3.84
2022-12-08T07:38:53.523Z,4.35
2022-12-08T07:41:23.883Z,4.26
2022-12-08T07:43:53.943Z,4.11
2022-12-08T07:46:23.242Z,4.49
2022-12-08T07:48:52.949Z,4.47
2022-12-08T07:51:21.387Z,4.45
2022-12-08T07:53:54.294Z,4.66
2022-12-08T07:56:23.562Z,4.98
2022-12-08T07:58:52.236Z,4.68
2022-12-08T08:01:28.502Z,4.73
2022-12-08T08:03:57.706Z,5.01
2022-12-08T08:06:26.739Z,5.14
2022-12-08T08:08:55.189Z,4.90
2022-12-08T08:11:23.691Z,5.08
2022-12-08T08:13:52.875Z,4.72
2022-12-08T08:16:22.628Z,4.55
2022-12-08T08:18:51.920Z,4.11
2022-12-08T08:21:45.596Z,4.40
2022-12-08T08:24:09.741Z,4.64
2022-12-08T08:26:38.772Z,4.42
2022-12-08T08:29:07.103Z,2.28
2022-12-08T08:31:35.710Z,3.86
2022-12-08T08:34:06.677Z,3.40
2022-12-08T08:36:35.661Z,3.73
2022-12-08T08:39:05.730Z,4.68
2022-12-08T08:41:35.856Z,4.61
2022-12-08T08:44:05.412Z,5.33
2022-12-08T08:46:33.955Z,4.68
2022-12-08T08:49:02.463Z,4.70
2022-12-08T08:51:31.687Z,5.36
2022-12-08T08:54:00.033Z,6.06
2022-12-08T08:56:28.447Z,8.04
2022-12-08T08:58:56.955Z,10.14
2022-12-08T09:01:27.526Z,10.74
2022-12-08T09:03:57.213Z,10.40
2022-12-08T09:06:25.932Z,8.34
2022-12-08T09:08:54.503Z,7.94
2022-12-08T09:11:23.789Z,7.66
2022-12-08T09:13:52.645Z,7.52
2022-12-08T09:16:21.277Z,7.24
2022-12-08T09:18:49.894Z,7.23
2022-12-08T09:21:23.146Z,6.08
2022-12-08T09:23:53.368Z,6.85
2022-12-08T09:26:22.761Z,7.03
2022-12-08T09:28:51.683Z,7.18
2022-12-08T09:31:21.012Z,6.33
2022-12-08T09:33:51.852Z,6.47
2022-12-08T09:36:20.773Z,6.39
2022-12-08T09:38:50.581Z,6.46
2022-12-08T09:41:38.906Z,6.73
2022-12-08T09:44:42.601Z,6.71
2022-12-08T09:47:22.682Z,6.58
2022-12-08T09:50:25.091Z,7.11
2022-12-08T09:53:20.018Z,7.09
2022-12-08T09:55:56.928Z,6.88
2022-12-08T09:58:30.426Z,5.68
2022-12-08T10:00:58.902Z,6.34
2022-12-08T10:03:28.850Z,7.13
2022-12-08T10:06:16.131Z,7.75
2022-12-08T10:09:04.999Z,7.97
2022-12-08T10:11:41.288Z,8.36
2022-12-08T10:14:22.219Z,8.48
2022-12-08T10:16:51.097Z,8.38
2022-12-08T10:19:20.958Z,8.07
2022-12-08T10:21:50.485Z,7.85
2022-12-08T10:24:33.934Z,8.24
2022-12-08T10:27:02.514Z,8.57
2022-12-08T10:29:31.564Z,8.62
2022-12-08T10:32:00.504Z,8.96
2022-12-08T10:34:29.046Z,8.38
2022-12-08T10:36:59.155Z,8.34
2022-12-08T10:39:34.759Z,8.37
2022-12-08T10:42:14.999Z,8.06
2022-12-08T10:45:09.570Z,8.10
2022-12-08T10:47:42.487Z,7.62
2022-12-08T10:50:21.435Z,8.18
2022-12-08T10:52:56.616Z,8.57
2022-12-08T10:55:25.260Z,8.43
2022-12-08T10:57:53.729Z,8.89
2022-12-08T11:00:26.359Z,9.04
2022-12-08T11:02:57.921Z,9.21
2022-12-08T11:05:44.581Z,9.60
2022-12-08T11:08:13.809Z,9.81
2022-12-08T11:10:45.808Z,9.82
2022-12-08T11:13:26.682Z,10.03
2022-12-08T11:15:55.550Z,9.98
2022-12-08T11:18:31.777Z,9.92
2022-12-08T11:21:03.031Z,9.84
2022-12-08T11:23:31.531Z,10.11
2022-12-08T11:26:04.397Z,10.24
2022-12-08T11:28:32.898Z,10.37
2022-12-08T11:31:22.077Z,10.51
2022-12-08T11:33:51.079Z,10.74
2022-12-08T11:36:19.740Z,10.25
2022-12-08T11:38:48.710Z,10.61
2022-12-08T11:41:18.716Z,10.75
2022-12-08T11:44:25.961Z,9.81
2022-12-08T11:47:16.171Z,10.19
2022-12-08T11:52:24.423Z,11.15
2022-12-08T11:55:16.013Z,11.03
2022-12-08T11:57:44.966Z,10.85
2022-12-08T12:00:14.781Z,10.89
2022-12-08T12:02:46.606Z,10.96
2022-12-08T12:06:12.576Z,11.21
2022-12-08T12:08:58.585Z,11.18
2022-12-08T12:11:52.312Z,11.27
2022-12-08T12:14:41.879Z,11.10
2022-12-08T12:17:42.186Z,11.19
2022-12-08T12:20:21.054Z,10.35
2022-12-08T12:22:53.153Z,10.85
2022-12-08T12:25:23.982Z,11.39
2022-12-08T12:27:57.177Z,10.86
2022-12-08T12:30:27.478Z,11.31
2022-12-08T12:32:58.311Z,11.18
2022-12-08T12:35:33.918Z,11.13
2022-12-08T12:38:35.825Z,11.70
2022-12-08T12:41:04.733Z,11.12
2022-12-08T12:43:38.123Z,11.38
2022-12-08T12:46:28.272Z,11.53
2022-12-08T12:48:58.530Z,11.55
2022-12-08T12:51:40.088Z,11.88
2022-12-08T12:54:27.385Z,11.94
2022-12-08T12:57:10.802Z,11.98
2022-12-08T12:59:54.648Z,12.08
2022-12-08T13:02:31.354Z,11.98
2022-12-08T13:05:09.997Z,11.84
2022-12-08T13:08:01.342Z,12.04
2022-12-08T13:10:36.958Z,12.10
2022-12-08T13:13:11.086Z,12.04
2022-12-08T13:15:41.208Z,12.01
2022-12-08T13:18:22.045Z,12.00
2022-12-08T13:21:04.759Z,12.17
2022-12-08T13:23:50.739Z,11.98
2022-12-08T13:26:23.779Z,11.86
2022-12-08T13:29:04.610Z,11.85
2022-12-08T13:31:37.397Z,11.81
2022-12-08T13:34:27.021Z,11.92
2022-12-08T13:37:16.440Z,11.98
2022-12-08T13:39:59.986Z,12.03
2022-12-08T13:42:43.403Z,11.96
2022-12-08T13:45:27.989Z,11.96
2022-12-08T13:48:25.587Z,11.77
2022-12-08T13:54:56.029Z,11.70
2022-12-08T13:57:10.190Z,11.87
2022-12-08T13:59:35.035Z,11.79
2022-12-08T14:02:18.153Z,11.73
2022-12-08T14:07:39.415Z,11.61
2022-12-08T14:10:16.490Z,11.61
2022-12-08T14:12:46.789Z,11.48
2022-12-08T14:15:15.938Z,11.43
2022-12-08T14:17:54.799Z,11.39
2022-12-08T14:20:24.886Z,11.36
2022-12-08T14:22:54.163Z,11.23
2022-12-08T14:25:22.981Z,11.30
2022-12-08T14:27:51.337Z,11.32
2022-12-08T14:30:26.678Z,11.12
2022-12-08T14:32:59.192Z,10.47
2022-12-08T14:35:34.075Z,10.64
2022-12-08T14:38:10.365Z,10.64
2022-12-08T14:40:41.938Z,10.69
2022-12-08T14:43:10.494Z,10.58
2022-12-08T14:45:43.014Z,10.18
2022-12-08T14:48:26.096Z,10.10
2022-12-08T14:51:02.302Z,10.17
2022-12-08T14:53:41.683Z,10.06
2022-12-08T14:56:23.210Z,8.70
2022-12-08T14:59:12.514Z,9.54
2022-12-08T15:01:41.727Z,9.55
2022-12-08T15:04:13.107Z,9.77
2022-12-08T15:06:50.812Z,9.73
2022-12-08T15:10:17.898Z,9.60
2022-12-08T15:13:05.495Z,9.66
2022-12-08T15:15:58.176Z,9.42
2022-12-08T15:18:40.263Z,9.19
2022-12-08T15:21:09.721Z,9.08
2022-12-08T15:23:45.547Z,8.80
2022-12-08T15:26:24.830Z,9.14
2022-12-08T15:28:53.871Z,9.19
2022-12-08T15:31:22.531Z,8.53
2022-12-08T15:33:51.456Z,8.52
2022-12-08T15:36:20.642Z,8.84
2022-12-08T15:38:49.219Z,8.91
2022-12-08T15:41:17.829Z,8.24
2022-12-08T15:43:46.642Z,8.21
2022-12-08T15:46:15.264Z,8.58
2022-12-08T15:48:43.777Z,8.54
2022-12-08T15:51:12.142Z,8.33
2022-12-08T15:53:40.540Z,8.55
2022-12-08T15:58:58.345Z,7.36
2022-12-08T16:01:27.642Z,7.09
2022-12-08T16:09:42.645Z,6.77
2022-12-08T16:13:19.975Z,6.22
2022-12-08T16:15:50.030Z,5.97
2022-12-08T16:18:24.197Z,5.74
2022-12-08T16:23:43.602Z,6.70
2022-12-08T16:29:08.126Z,6.41
2022-12-08T16:31:36.673Z,7.16
2022-12-08T16:34:05.148Z,7.38
2022-12-08T16:36:33.942Z,6.53
2022-12-08T16:39:03.503Z,6.64
2022-12-08T16:41:50.650Z,6.15
2022-12-08T16:44:19.428Z,6.53
2022-12-08T16:46:47.912Z,6.90
2022-12-08T16:49:16.339Z,6.69
2022-12-08T16:51:45.149Z,6.51
2022-12-08T16:54:13.620Z,6.81
2022-12-08T16:56:43.773Z,5.93
2022-12-08T16:59:12.949Z,6.17
2022-12-08T17:01:41.426Z,6.25
2022-12-08T17:06:59.624Z,6.02
2022-12-08T17:09:29.632Z,6.73
2022-12-08T17:12:03.510Z,6.13
2022-12-08T17:14:35.103Z,6.07
2022-12-08T17:17:04.451Z,6.00
2022-12-08T17:19:33.354Z,5.49
2022-12-08T17:22:02.818Z,6.10
2022-12-08T17:24:31.814Z,6.42
2022-12-08T17:27:04.955Z,6.42
2022-12-08T17:29:34.868Z,5.50
2022-12-08T17:32:03.991Z,6.34
2022-12-08T17:34:33.887Z,6.45
2022-12-08T17:37:02.604Z,6.43
2022-12-08T17:39:32.606Z,5.34
2022-12-08T17:42:02.515Z,6.41
2022-12-08T17:44:35.129Z,6.54
2022-12-08T17:47:07.887Z,5.63
2022-12-08T17:49:37.531Z,6.17
2022-12-08T17:52:09.481Z,6.00
2022-12-08T17:54:38.829Z,6.04
2022-12-08T17:57:08.081Z,6.22
2022-12-08T17:59:36.895Z,5.88
2022-12-08T18:02:09.212Z,6.02
2022-12-08T18:04:38.850Z,5.91
2022-12-08T18:07:07.652Z,5.27
2022-12-08T18:09:36.854Z,5.59
2022-12-08T18:12:06.259Z,5.18
2022-12-08T18:14:35.024Z,5.60
2022-12-08T18:17:05.690Z,5.93
2022-12-08T18:19:34.743Z,6.17
2022-12-08T18:22:03.793Z,6.42
2022-12-08T18:24:32.806Z,6.65
2022-12-08T18:27:01.484Z,6.80
2022-12-08T18:29:30.658Z,6.70
2022-12-08T18:31:59.933Z,6.61
2022-12-08T18:34:29.050Z,6.45
2022-12-08T18:36:57.889Z,6.63
2022-12-08T18:39:28.886Z,6.18
2022-12-08T18:41:58.247Z,6.64
2022-12-08T18:44:26.997Z,5.89
2022-12-08T18:46:56.717Z,6.11
2022-12-08T18:49:27.370Z,6.07
2022-12-08T18:51:58.523Z,6.30
2022-12-08T18:54:50.093Z,6.61
2022-12-08T18:57:18.979Z,6.77
2022-12-08T18:59:48.078Z,6.38
2022-12-08T19:02:17.524Z,6.48
2022-12-08T19:04:46.184Z,6.55
2022-12-08T19:07:17.673Z,6.44
2022-12-08T19:09:46.334Z,6.65
2022-12-08T19:12:15.287Z,6.43
2022-12-08T19:14:44.066Z,6.50
2022-12-08T19:17:13.224Z,6.27
2022-12-08T19:19:41.853Z,6.26
2022-12-08T19:22:10.353Z,6.25
2022-12-08T19:24:39.473Z,5.92
2022-12-08T19:27:08.271Z,6.02
2022-12-08T19:29:36.668Z,6.08
2022-12-08T19:32:05.552Z,6.33
2022-12-08T19:34:34.386Z,5.72
2022-12-08T19:37:03.247Z,5.16
2022-12-08T19:39:50.661Z,4.83
2022-12-08T19:42:38.645Z,4.69
2022-12-08T19:45:18.341Z,4.45
2022-12-08T19:47:47.613Z,4.60
2022-12-08T19:50:35.091Z,5.30
2022-12-08T19:53:09.052Z,5.65
2022-12-08T19:55:37.639Z,5.36
2022-12-08T19:58:06.291Z,5.63
2022-12-08T20:00:35.359Z,5.30
2022-12-08T20:03:04.660Z,5.20
2022-12-08T20:05:34.525Z,5.43
2022-12-08T20:08:04.130Z,5.72
2022-12-08T20:10:35.954Z,6.05
2022-12-08T20:13:24.323Z,6.17
2022-12-08T20:15:53.375Z,6.34
2022-12-08T20:18:22.078Z,6.06
2022-12-08T20:20:51.015Z,6.22
2022-12-08T20:23:20.067Z,5.88
2022-12-08T20:25:48.743Z,6.24
2022-12-08T20:28:19.850Z,6.09
2022-12-08T20:30:49.467Z,5.77
2022-12-08T20:33:19.661Z,5.85
2022-12-08T20:35:49.066Z,5.53
2022-12-08T20:38:17.952Z,6.03
2022-12-08T20:40:47.677Z,6.22
2022-12-08T20:43:16.380Z,6.41
2022-12-08T20:45:45.315Z,6.35
2022-12-08T20:48:13.875Z,6.12
2022-12-08T20:50:42.676Z,6.42
2022-12-08T20:53:11.306Z,6.68
2022-12-08T20:55:42.074Z,5.00
2022-12-08T20:58:10.853Z,6.10
2022-12-08T21:00:39.383Z,6.21
2022-12-08T21:03:08.788Z,4.93
2022-12-08T21:05:39.109Z,5.59
2022-12-08T21:08:07.966Z,5.59
2022-12-08T21:10:40.776Z,5.93
2022-12-08T21:13:12.270Z,5.69
2022-12-08T21:15:48.160Z,6.04
2022-12-08T21:18:17.330Z,6.33
2022-12-08T21:20:45.864Z,6.21
2022-12-08T21:23:14.918Z,5.85
2022-12-08T21:25:44.582Z,5.64
2022-12-08T21:28:13.668Z,5.91
2022-12-08T21:30:43.235Z,5.55
2022-12-08T21:33:12.034Z,5.57
2022-12-08T21:35:40.651Z,5.66
2022-12-08T21:38:09.312Z,5.81
2022-12-08T21:40:38.057Z,5.42
2022-12-08T21:43:07.287Z,5.50
2022-12-08T21:45:36.793Z,5.38
2022-12-08T21:48:10.819Z,5.84
2022-12-08T21:50:40.401Z,5.55
2022-12-08T21:53:08.991Z,5.92
2022-12-08T21:55:37.574Z,5.02
2022-12-08T21:58:06.256Z,5.01
2022-12-08T22:00:34.989Z,5.38
2022-12-08T22:03:04.760Z,5.59
2022-12-08T22:05:36.184Z,6.05
2022-12-08T22:08:05.100Z,6.15
2022-12-08T22:10:33.733Z,6.14
2022-12-08T22:13:02.597Z,5.43
2022-12-08T22:15:31.359Z,5.98
2022-12-08T22:18:01.018Z,5.80
2022-12-08T22:20:29.844Z,5.45
2022-12-08T22:22:58.725Z,5.74
2022-12-08T22:25:27.360Z,5.97
2022-12-08T22:27:55.913Z,6.01
2022-12-08T22:30:24.551Z,5.64
2022-12-08T22:32:53.045Z,5.58
2022-12-08T22:35:22.167Z,6.03
2022-12-08T22:37:51.145Z,6.02
2022-12-08T22:40:20.700Z,6.05
2022-12-08T22:42:50.020Z,6.02
2022-12-08T22:45:19.009Z,5.66
2022-12-08T22:47:47.790Z,5.68
2022-12-08T22:50:16.394Z,5.75
2022-12-08T22:52:45.474Z,5.03
2022-12-08T22:55:14.918Z,4.88
2022-12-08T22:57:44.571Z,5.07
2022-12-08T23:00:13.420Z,5.20
2022-12-08T23:02:42.035Z,5.17
2022-12-08T23:05:11.144Z,5.26
2022-12-08T23:07:39.808Z,5.08
2022-12-08T23:10:09.531Z,5.05
2022-12-08T23:12:38.451Z,5.23
2022-12-08T23:15:07.809Z,5.43
2022-12-08T23:17:37.180Z,4.56
2022-12-08T23:20:06.745Z,4.98
2022-12-08T23:22:35.998Z,4.77
2022-12-08T23:25:06.340Z,4.94
2022-12-08T23:27:35.230Z,4.61
2022-12-08T23:30:08.302Z,5.02
2022-12-08T23:32:37.127Z,4.90
2022-12-08T23:35:06.528Z,5.07
2022-12-08T23:37:35.254Z,5.19
2022-12-08T23:40:05.324Z,5.11
2022-12-08T23:42:34.267Z,4.84
2022-12-08T23:45:04.528Z,4.99
2022-12-08T23:47:33.011Z,4.18
2022-12-08T23:50:01.606Z,4.61
2022-12-08T23:52:30.065Z,5.15
2022-12-08T23:54:58.592Z,5.15
2022-12-08T23:57:28.203Z,5.30
2022-12-08T23:59:56.608Z,5.67
